sensor_id;sensor_type;location;lat;lon;timestamp;P1;durP1;ratioP1;P2;durP2;ratioP2
75739;SDS011;64357;51.344;6.550;2024-03-22T00:00:10;20.35;;;7.05;;
75739;SDS011;64357;51.344;6.550;2024-03-22T00:02:36;22.20;;;7.40;;
75739;SDS011;64357;51.344;6.550;2024-03-22T00:05:05;19.33;;;7.32;;
75739;SDS011;64357;51.344;6.550;2024-03-22T00:07:30;23.55;;;9.10;;
75739;SDS011;64357;51.344;6.550;2024-03-22T00:09:56;22.55;;;8.23;;
75739;SDS011;64357;51.344;6.550;2024-03-22T00:12:21;23.13;;;7.75;;
75739;SDS011;64357;51.344;6.550;2024-03-22T00:14:52;19.77;;;6.88;;
75739;SDS011;64357;51.344;6.550;2024-03-22T00:17:19;19.27;;;7.70;;
75739;SDS011;64357;51.344;6.550;2024-03-22T00:19:45;21.30;;;7.50;;
75739;SDS011;64357;51.344;6.550;2024-03-22T00:22:10;20.83;;;7.63;;
75739;SDS011;64357;51.344;6.550;2024-03-22T00:24:35;18.43;;;7.10;;
75739;SDS011;64357;51.344;6.550;2024-03-22T00:27:01;21.30;;;6.73;;
75739;SDS011;64357;51.344;6.550;2024-03-22T00:29:26;19.17;;;7.30;;
75739;SDS011;64357;51.344;6.550;2024-03-22T00:31:51;23.02;;;7.90;;
75739;SDS011;64357;51.344;6.550;2024-03-22T00:34:17;18.40;;;7.40;;
75739;SDS011;64357;51.344;6.550;2024-03-22T00:36:44;24.83;;;8.15;;
75739;SDS011;64357;51.344;6.550;2024-03-22T00:39:10;22.60;;;7.88;;
75739;SDS011;64357;51.344;6.550;2024-03-22T00:41:38;21.45;;;7.65;;
75739;SDS011;64357;51.344;6.550;2024-03-22T00:44:04;20.63;;;7.10;;
75739;SDS011;64357;51.344;6.550;2024-03-22T00:46:29;23.60;;;7.60;;
75739;SDS011;64357;51.344;6.550;2024-03-22T00:48:55;21.90;;;7.47;;
75739;SDS011;64357;51.344;6.550;2024-03-22T00:51:20;20.37;;;7.93;;
75739;SDS011;64357;51.344;6.550;2024-03-22T00:53:45;21.90;;;7.63;;
75739;SDS011;64357;51.344;6.550;2024-03-22T00:56:11;23.05;;;7.55;;
75739;SDS011;64357;51.344;6.550;2024-03-22T00:58:36;22.67;;;8.38;;
75739;SDS011;64357;51.344;6.550;2024-03-22T01:01:01;21.00;;;7.60;;
75739;SDS011;64357;51.344;6.550;2024-03-22T01:03:27;24.77;;;8.75;;
75739;SDS011;64357;51.344;6.550;2024-03-22T01:05:55;20.77;;;7.63;;
75739;SDS011;64357;51.344;6.550;2024-03-22T01:08:22;20.75;;;8.10;;
75739;SDS011;64357;51.344;6.550;2024-03-22T01:10:48;23.88;;;7.65;;
75739;SDS011;64357;51.344;6.550;2024-03-22T01:13:13;22.43;;;8.10;;
75739;SDS011;64357;51.344;6.550;2024-03-22T01:15:40;24.15;;;8.82;;
75739;SDS011;64357;51.344;6.550;2024-03-22T01:18:06;20.80;;;7.30;;
75739;SDS011;64357;51.344;6.550;2024-03-22T01:20:31;24.80;;;8.20;;
75739;SDS011;64357;51.344;6.550;2024-03-22T01:22:58;23.37;;;8.43;;
75739;SDS011;64357;51.344;6.550;2024-03-22T01:25:24;20.58;;;7.88;;
75739;SDS011;64357;51.344;6.550;2024-03-22T01:27:50;20.80;;;7.37;;
75739;SDS011;64357;51.344;6.550;2024-03-22T01:30:15;24.10;;;7.87;;
75739;SDS011;64357;51.344;6.550;2024-03-22T01:32:40;22.52;;;8.88;;
75739;SDS011;64357;51.344;6.550;2024-03-22T01:35:06;23.38;;;9.07;;
75739;SDS011;64357;51.344;6.550;2024-03-22T01:37:34;24.35;;;8.82;;
75739;SDS011;64357;51.344;6.550;2024-03-22T01:40:00;23.40;;;7.90;;
75739;SDS011;64357;51.344;6.550;2024-03-22T01:42:25;24.25;;;9.07;;
75739;SDS011;64357;51.344;6.550;2024-03-22T01:44:53;21.50;;;8.38;;
75739;SDS011;64357;51.344;6.550;2024-03-22T01:47:18;26.87;;;9.53;;
75739;SDS011;64357;51.344;6.550;2024-03-22T01:49:49;25.60;;;8.45;;
75739;SDS011;64357;51.344;6.550;2024-03-22T01:52:19;25.98;;;9.05;;
75739;SDS011;64357;51.344;6.550;2024-03-22T01:54:44;25.13;;;9.17;;
75739;SDS011;64357;51.344;6.550;2024-03-22T01:57:09;28.13;;;9.02;;
75739;SDS011;64357;51.344;6.550;2024-03-22T01:59:35;27.65;;;9.25;;
75739;SDS011;64357;51.344;6.550;2024-03-22T02:02:01;26.35;;;9.18;;
75739;SDS011;64357;51.344;6.550;2024-03-22T02:04:28;26.42;;;9.40;;
75739;SDS011;64357;51.344;6.550;2024-03-22T02:06:54;24.27;;;8.57;;
75739;SDS011;64357;51.344;6.550;2024-03-22T02:09:19;26.57;;;8.83;;
75739;SDS011;64357;51.344;6.550;2024-03-22T02:11:46;21.55;;;8.68;;
75739;SDS011;64357;51.344;6.550;2024-03-22T02:14:12;23.88;;;8.55;;
75739;SDS011;64357;51.344;6.550;2024-03-22T02:16:39;24.73;;;9.10;;
75739;SDS011;64357;51.344;6.550;2024-03-22T02:19:07;28.27;;;9.60;;
75739;SDS011;64357;51.344;6.550;2024-03-22T02:21:33;26.90;;;8.40;;
75739;SDS011;64357;51.344;6.550;2024-03-22T02:23:59;26.67;;;8.48;;
75739;SDS011;64357;51.344;6.550;2024-03-22T02:26:25;21.47;;;8.90;;
75739;SDS011;64357;51.344;6.550;2024-03-22T02:28:52;23.33;;;8.70;;
75739;SDS011;64357;51.344;6.550;2024-03-22T02:31:18;26.77;;;8.80;;
75739;SDS011;64357;51.344;6.550;2024-03-22T02:33:45;23.08;;;8.40;;
75739;SDS011;64357;51.344;6.550;2024-03-22T02:36:10;21.05;;;8.85;;
75739;SDS011;64357;51.344;6.550;2024-03-22T02:38:38;29.70;;;9.23;;
75739;SDS011;64357;51.344;6.550;2024-03-22T02:41:03;27.90;;;8.38;;
75739;SDS011;64357;51.344;6.550;2024-03-22T02:43:29;23.87;;;8.17;;
75739;SDS011;64357;51.344;6.550;2024-03-22T02:45:57;26.73;;;9.60;;
75739;SDS011;64357;51.344;6.550;2024-03-22T02:48:22;27.35;;;8.57;;
75739;SDS011;64357;51.344;6.550;2024-03-22T02:50:47;24.20;;;9.10;;
75739;SDS011;64357;51.344;6.550;2024-03-22T02:53:15;26.13;;;8.02;;
75739;SDS011;64357;51.344;6.550;2024-03-22T02:55:40;27.10;;;9.27;;
75739;SDS011;64357;51.344;6.550;2024-03-22T02:58:06;23.80;;;8.95;;
75739;SDS011;64357;51.344;6.550;2024-03-22T03:00:38;25.02;;;8.82;;
75739;SDS011;64357;51.344;6.550;2024-03-22T03:03:04;28.13;;;9.00;;
75739;SDS011;64357;51.344;6.550;2024-03-22T03:05:30;25.92;;;9.70;;
75739;SDS011;64357;51.344;6.550;2024-03-22T03:07:55;25.17;;;8.93;;
75739;SDS011;64357;51.344;6.550;2024-03-22T03:10:21;27.73;;;10.17;;
75739;SDS011;64357;51.344;6.550;2024-03-22T03:12:49;23.88;;;8.60;;
75739;SDS011;64357;51.344;6.550;2024-03-22T03:15:15;22.65;;;8.60;;
75739;SDS011;64357;51.344;6.550;2024-03-22T03:17:41;28.02;;;8.82;;
75739;SDS011;64357;51.344;6.550;2024-03-22T03:20:06;24.03;;;8.80;;
75739;SDS011;64357;51.344;6.550;2024-03-22T03:22:33;25.27;;;8.45;;
75739;SDS011;64357;51.344;6.550;2024-03-22T03:24:59;27.35;;;9.15;;
75739;SDS011;64357;51.344;6.550;2024-03-22T03:27:29;27.58;;;9.05;;
75739;SDS011;64357;51.344;6.550;2024-03-22T03:29:54;27.65;;;9.52;;
75739;SDS011;64357;51.344;6.550;2024-03-22T03:32:20;26.93;;;8.63;;
75739;SDS011;64357;51.344;6.550;2024-03-22T03:34:45;23.00;;;8.65;;
75739;SDS011;64357;51.344;6.550;2024-03-22T03:37:13;24.35;;;9.45;;
75739;SDS011;64357;51.344;6.550;2024-03-22T03:39:41;25.55;;;8.75;;
75739;SDS011;64357;51.344;6.550;2024-03-22T03:42:10;27.67;;;9.70;;
75739;SDS011;64357;51.344;6.550;2024-03-22T03:44:35;24.60;;;9.38;;
75739;SDS011;64357;51.344;6.550;2024-03-22T03:47:01;29.40;;;10.13;;
75739;SDS011;64357;51.344;6.550;2024-03-22T03:49:27;27.42;;;9.90;;
75739;SDS011;64357;51.344;6.550;2024-03-22T03:51:55;25.27;;;9.40;;
75739;SDS011;64357;51.344;6.550;2024-03-22T03:54:20;25.65;;;9.73;;
75739;SDS011;64357;51.344;6.550;2024-03-22T03:56:46;24.38;;;8.93;;
75739;SDS011;64357;51.344;6.550;2024-03-22T03:59:13;27.00;;;8.93;;
75739;SDS011;64357;51.344;6.550;2024-03-22T04:01:44;21.25;;;8.98;;
75739;SDS011;64357;51.344;6.550;2024-03-22T04:04:12;28.52;;;10.32;;
75739;SDS011;64357;51.344;6.550;2024-03-22T04:06:43;22.45;;;8.50;;
75739;SDS011;64357;51.344;6.550;2024-03-22T04:09:11;22.85;;;7.70;;
75739;SDS011;64357;51.344;6.550;2024-03-22T04:11:36;24.95;;;8.32;;
75739;SDS011;64357;51.344;6.550;2024-03-22T04:14:02;26.27;;;8.52;;
75739;SDS011;64357;51.344;6.550;2024-03-22T04:16:28;24.27;;;9.32;;
75739;SDS011;64357;51.344;6.550;2024-03-22T04:18:54;23.10;;;8.37;;
75739;SDS011;64357;51.344;6.550;2024-03-22T04:21:21;21.45;;;8.95;;
75739;SDS011;64357;51.344;6.550;2024-03-22T04:23:47;23.80;;;8.40;;
75739;SDS011;64357;51.344;6.550;2024-03-22T04:26:17;22.35;;;7.00;;
75739;SDS011;64357;51.344;6.550;2024-03-22T04:28:45;22.02;;;7.13;;
75739;SDS011;64357;51.344;6.550;2024-03-22T04:31:11;21.48;;;7.78;;
75739;SDS011;64357;51.344;6.550;2024-03-22T04:33:39;24.10;;;8.90;;
75739;SDS011;64357;51.344;6.550;2024-03-22T04:36:09;21.35;;;8.20;;
75739;SDS011;64357;51.344;6.550;2024-03-22T04:38:34;24.92;;;8.73;;
75739;SDS011;64357;51.344;6.550;2024-03-22T04:41:00;17.58;;;7.70;;
75739;SDS011;64357;51.344;6.550;2024-03-22T04:43:27;21.58;;;8.38;;
75739;SDS011;64357;51.344;6.550;2024-03-22T04:45:53;21.25;;;7.68;;
75739;SDS011;64357;51.344;6.550;2024-03-22T04:48:19;16.77;;;7.53;;
75739;SDS011;64357;51.344;6.550;2024-03-22T04:50:49;21.35;;;8.02;;
75739;SDS011;64357;51.344;6.550;2024-03-22T04:53:17;18.90;;;7.40;;
75739;SDS011;64357;51.344;6.550;2024-03-22T04:55:43;22.40;;;8.20;;
75739;SDS011;64357;51.344;6.550;2024-03-22T04:58:16;17.92;;;8.20;;
75739;SDS011;64357;51.344;6.550;2024-03-22T05:00:43;20.95;;;7.97;;
75739;SDS011;64357;51.344;6.550;2024-03-22T05:03:09;19.13;;;7.55;;
75739;SDS011;64357;51.344;6.550;2024-03-22T05:05:36;17.88;;;7.35;;
75739;SDS011;64357;51.344;6.550;2024-03-22T05:08:04;18.35;;;6.88;;
75739;SDS011;64357;51.344;6.550;2024-03-22T05:10:33;21.25;;;8.20;;
75739;SDS011;64357;51.344;6.550;2024-03-22T05:13:02;21.00;;;7.45;;
75739;SDS011;64357;51.344;6.550;2024-03-22T05:15:30;19.83;;;7.43;;
75739;SDS011;64357;51.344;6.550;2024-03-22T05:17:57;17.33;;;7.88;;
75739;SDS011;64357;51.344;6.550;2024-03-22T05:20:23;22.77;;;7.93;;
75739;SDS011;64357;51.344;6.550;2024-03-22T05:22:48;19.65;;;8.07;;
75739;SDS011;64357;51.344;6.550;2024-03-22T05:25:16;19.55;;;6.53;;
75739;SDS011;64357;51.344;6.550;2024-03-22T05:27:48;17.20;;;6.10;;
75739;SDS011;64357;51.344;6.550;2024-03-22T05:30:14;17.75;;;7.22;;
75739;SDS011;64357;51.344;6.550;2024-03-22T05:32:43;18.67;;;7.18;;
75739;SDS011;64357;51.344;6.550;2024-03-22T05:35:09;17.57;;;6.90;;
75739;SDS011;64357;51.344;6.550;2024-03-22T05:37:34;15.93;;;6.60;;
75739;SDS011;64357;51.344;6.550;2024-03-22T05:40:00;16.23;;;5.40;;
75739;SDS011;64357;51.344;6.550;2024-03-22T05:42:29;17.17;;;7.03;;
75739;SDS011;64357;51.344;6.550;2024-03-22T05:44:55;16.90;;;6.90;;
75739;SDS011;64357;51.344;6.550;2024-03-22T05:47:20;19.35;;;7.05;;
75739;SDS011;64357;51.344;6.550;2024-03-22T05:49:46;19.60;;;7.17;;
75739;SDS011;64357;51.344;6.550;2024-03-22T05:52:14;16.55;;;7.20;;
75739;SDS011;64357;51.344;6.550;2024-03-22T05:54:42;21.42;;;7.78;;
75739;SDS011;64357;51.344;6.550;2024-03-22T05:57:12;17.88;;;7.32;;
75739;SDS011;64357;51.344;6.550;2024-03-22T05:59:40;20.17;;;7.93;;
75739;SDS011;64357;51.344;6.550;2024-03-22T06:02:05;17.40;;;6.60;;
75739;SDS011;64357;51.344;6.550;2024-03-22T06:04:31;16.27;;;6.93;;
75739;SDS011;64357;51.344;6.550;2024-03-22T06:06:59;17.25;;;7.40;;
75739;SDS011;64357;51.344;6.550;2024-03-22T06:09:29;16.42;;;7.20;;
75739;SDS011;64357;51.344;6.550;2024-03-22T06:12:13;21.48;;;7.68;;
75739;SDS011;64357;51.344;6.550;2024-03-22T06:14:42;19.23;;;8.38;;
75739;SDS011;64357;51.344;6.550;2024-03-22T06:17:08;16.65;;;5.45;;
75739;SDS011;64357;51.344;6.550;2024-03-22T06:19:34;18.35;;;7.72;;
75739;SDS011;64357;51.344;6.550;2024-03-22T06:22:00;18.42;;;6.95;;
75739;SDS011;64357;51.344;6.550;2024-03-22T06:24:26;18.70;;;7.13;;
75739;SDS011;64357;51.344;6.550;2024-03-22T06:26:51;16.75;;;6.53;;
75739;SDS011;64357;51.344;6.550;2024-03-22T06:29:16;18.67;;;7.25;;
75739;SDS011;64357;51.344;6.550;2024-03-22T06:31:42;17.10;;;6.83;;
75739;SDS011;64357;51.344;6.550;2024-03-22T06:34:07;17.52;;;6.85;;
75739;SDS011;64357;51.344;6.550;2024-03-22T06:36:34;16.27;;;6.50;;
75739;SDS011;64357;51.344;6.550;2024-03-22T06:39:02;15.27;;;6.45;;
75739;SDS011;64357;51.344;6.550;2024-03-22T06:41:33;18.40;;;6.00;;
75739;SDS011;64357;51.344;6.550;2024-03-22T06:44:00;18.95;;;7.25;;
75739;SDS011;64357;51.344;6.550;2024-03-22T06:46:30;16.73;;;6.32;;
75739;SDS011;64357;51.344;6.550;2024-03-22T06:48:57;19.77;;;7.15;;
75739;SDS011;64357;51.344;6.550;2024-03-22T06:51:23;18.20;;;7.35;;
75739;SDS011;64357;51.344;6.550;2024-03-22T06:53:49;18.10;;;6.83;;
75739;SDS011;64357;51.344;6.550;2024-03-22T06:56:14;15.13;;;6.68;;
75739;SDS011;64357;51.344;6.550;2024-03-22T06:58:42;19.83;;;8.13;;
75739;SDS011;64357;51.344;6.550;2024-03-22T07:01:09;16.85;;;7.05;;
75739;SDS011;64357;51.344;6.550;2024-03-22T07:03:37;17.95;;;6.50;;
75739;SDS011;64357;51.344;6.550;2024-03-22T07:06:02;14.63;;;6.47;;
75739;SDS011;64357;51.344;6.550;2024-03-22T07:08:31;16.33;;;6.25;;
75739;SDS011;64357;51.344;6.550;2024-03-22T07:10:59;16.67;;;6.47;;
75739;SDS011;64357;51.344;6.550;2024-03-22T07:13:24;12.30;;;5.43;;
75739;SDS011;64357;51.344;6.550;2024-03-22T07:15:53;15.80;;;6.47;;
75739;SDS011;64357;51.344;6.550;2024-03-22T07:18:21;12.55;;;5.80;;
75739;SDS011;64357;51.344;6.550;2024-03-22T07:20:48;15.97;;;6.83;;
75739;SDS011;64357;51.344;6.550;2024-03-22T07:23:16;16.67;;;6.85;;
75739;SDS011;64357;51.344;6.550;2024-03-22T07:25:46;17.67;;;7.28;;
75739;SDS011;64357;51.344;6.550;2024-03-22T07:28:13;20.33;;;7.18;;
75739;SDS011;64357;51.344;6.550;2024-03-22T07:30:41;16.17;;;5.72;;
75739;SDS011;64357;51.344;6.550;2024-03-22T07:33:07;18.33;;;6.82;;
75739;SDS011;64357;51.344;6.550;2024-03-22T07:35:34;16.40;;;6.53;;
75739;SDS011;64357;51.344;6.550;2024-03-22T07:38:00;16.17;;;6.75;;
75739;SDS011;64357;51.344;6.550;2024-03-22T07:40:30;16.35;;;6.43;;
75739;SDS011;64357;51.344;6.550;2024-03-22T07:42:56;14.63;;;6.43;;
75739;SDS011;64357;51.344;6.550;2024-03-22T07:45:21;13.00;;;5.43;;
75739;SDS011;64357;51.344;6.550;2024-03-22T07:47:46;19.60;;;6.63;;
75739;SDS011;64357;51.344;6.550;2024-03-22T07:50:12;15.88;;;6.50;;
75739;SDS011;64357;51.344;6.550;2024-03-22T07:52:40;17.50;;;6.70;;
75739;SDS011;64357;51.344;6.550;2024-03-22T07:55:08;15.97;;;7.00;;
75739;SDS011;64357;51.344;6.550;2024-03-22T07:57:33;16.77;;;5.47;;
75739;SDS011;64357;51.344;6.550;2024-03-22T07:59:58;17.43;;;6.70;;
75739;SDS011;64357;51.344;6.550;2024-03-22T08:02:24;11.50;;;4.60;;
75739;SDS011;64357;51.344;6.550;2024-03-22T08:04:51;12.48;;;5.10;;
75739;SDS011;64357;51.344;6.550;2024-03-22T08:07:17;14.60;;;5.30;;
75739;SDS011;64357;51.344;6.550;2024-03-22T08:09:42;17.07;;;5.77;;
75739;SDS011;64357;51.344;6.550;2024-03-22T08:12:08;10.88;;;4.07;;
75739;SDS011;64357;51.344;6.550;2024-03-22T08:14:33;14.82;;;5.88;;
75739;SDS011;64357;51.344;6.550;2024-03-22T08:16:59;12.10;;;5.57;;
75739;SDS011;64357;51.344;6.550;2024-03-22T08:19:24;15.47;;;5.90;;
75739;SDS011;64357;51.344;6.550;2024-03-22T08:21:49;14.80;;;6.10;;
75739;SDS011;64357;51.344;6.550;2024-03-22T08:24:15;10.13;;;4.65;;
75739;SDS011;64357;51.344;6.550;2024-03-22T08:26:40;11.90;;;4.55;;
75739;SDS011;64357;51.344;6.550;2024-03-22T08:29:12;10.55;;;3.80;;
75739;SDS011;64357;51.344;6.550;2024-03-22T08:31:41;11.52;;;6.22;;
75739;SDS011;64357;51.344;6.550;2024-03-22T08:34:07;12.25;;;4.30;;
75739;SDS011;64357;51.344;6.550;2024-03-22T08:36:33;11.20;;;4.65;;
75739;SDS011;64357;51.344;6.550;2024-03-22T08:38:59;8.15;;;3.53;;
75739;SDS011;64357;51.344;6.550;2024-03-22T08:41:24;12.70;;;4.65;;
75739;SDS011;64357;51.344;6.550;2024-03-22T08:43:52;10.13;;;3.70;;
75739;SDS011;64357;51.344;6.550;2024-03-22T08:48:52;10.48;;;5.13;;
75739;SDS011;64357;51.344;6.550;2024-03-22T08:51:18;11.15;;;4.30;;
75739;SDS011;64357;51.344;6.550;2024-03-22T08:53:44;9.70;;;4.45;;
75739;SDS011;64357;51.344;6.550;2024-03-22T08:56:09;10.18;;;4.25;;
75739;SDS011;64357;51.344;6.550;2024-03-22T08:58:36;11.75;;;4.85;;
75739;SDS011;64357;51.344;6.550;2024-03-22T09:01:01;13.53;;;4.47;;
75739;SDS011;64357;51.344;6.550;2024-03-22T09:03:29;9.90;;;3.45;;
75739;SDS011;64357;51.344;6.550;2024-03-22T09:05:55;8.10;;;3.42;;
75739;SDS011;64357;51.344;6.550;2024-03-22T09:08:21;8.63;;;3.28;;
75739;SDS011;64357;51.344;6.550;2024-03-22T09:10:47;11.80;;;4.60;;
75739;SDS011;64357;51.344;6.550;2024-03-22T09:13:12;11.15;;;4.28;;
75739;SDS011;64357;51.344;6.550;2024-03-22T09:15:40;10.00;;;4.30;;
75739;SDS011;64357;51.344;6.550;2024-03-22T09:18:08;16.60;;;6.10;;
75739;SDS011;64357;51.344;6.550;2024-03-22T09:20:33;8.82;;;3.35;;
75739;SDS011;64357;51.344;6.550;2024-03-22T09:22:59;9.97;;;3.03;;
75739;SDS011;64357;51.344;6.550;2024-03-22T09:25:24;12.55;;;4.50;;
75739;SDS011;64357;51.344;6.550;2024-03-22T09:27:52;10.32;;;4.30;;
75739;SDS011;64357;51.344;6.550;2024-03-22T09:30:17;10.30;;;4.38;;
75739;SDS011;64357;51.344;6.550;2024-03-22T09:32:43;10.80;;;4.35;;
75739;SDS011;64357;51.344;6.550;2024-03-22T09:35:09;10.20;;;4.63;;
75739;SDS011;64357;51.344;6.550;2024-03-22T09:37:37;11.20;;;4.20;;
75739;SDS011;64357;51.344;6.550;2024-03-22T09:40:02;13.50;;;3.60;;
75739;SDS011;64357;51.344;6.550;2024-03-22T09:42:32;10.23;;;3.42;;
75739;SDS011;64357;51.344;6.550;2024-03-22T09:45:00;9.95;;;3.00;;
75739;SDS011;64357;51.344;6.550;2024-03-22T09:47:27;9.50;;;4.55;;
75739;SDS011;64357;51.344;6.550;2024-03-22T09:49:52;9.57;;;3.45;;
75739;SDS011;64357;51.344;6.550;2024-03-22T09:52:19;11.70;;;4.57;;
75739;SDS011;64357;51.344;6.550;2024-03-22T09:54:45;12.32;;;4.43;;
75739;SDS011;64357;51.344;6.550;2024-03-22T09:57:14;10.52;;;4.00;;
75739;SDS011;64357;51.344;6.550;2024-03-22T09:59:43;8.90;;;3.35;;
75739;SDS011;64357;51.344;6.550;2024-03-22T10:02:10;14.52;;;4.22;;
75739;SDS011;64357;51.344;6.550;2024-03-22T10:04:40;11.93;;;4.82;;
75739;SDS011;64357;51.344;6.550;2024-03-22T10:07:06;11.88;;;4.05;;
75739;SDS011;64357;51.344;6.550;2024-03-22T10:09:35;9.48;;;3.33;;
75739;SDS011;64357;51.344;6.550;2024-03-22T10:12:04;11.98;;;4.10;;
75739;SDS011;64357;51.344;6.550;2024-03-22T10:14:30;8.23;;;3.08;;
75739;SDS011;64357;51.344;6.550;2024-03-22T10:16:57;8.65;;;3.53;;
75739;SDS011;64357;51.344;6.550;2024-03-22T10:19:25;13.45;;;4.30;;
75739;SDS011;64357;51.344;6.550;2024-03-22T10:22:00;9.35;;;2.47;;
75739;SDS011;64357;51.344;6.550;2024-03-22T10:24:29;7.18;;;2.88;;
75739;SDS011;64357;51.344;6.550;2024-03-22T10:26:58;8.75;;;3.10;;
75739;SDS011;64357;51.344;6.550;2024-03-22T10:29:23;6.63;;;3.03;;
75739;SDS011;64357;51.344;6.550;2024-03-22T10:31:53;9.68;;;3.45;;
75739;SDS011;64357;51.344;6.550;2024-03-22T10:34:21;8.93;;;3.47;;
75739;SDS011;64357;51.344;6.550;2024-03-22T10:36:47;9.80;;;3.58;;
75739;SDS011;64357;51.344;6.550;2024-03-22T10:39:15;8.68;;;3.33;;
75739;SDS011;64357;51.344;6.550;2024-03-22T10:41:47;11.00;;;4.28;;
75739;SDS011;64357;51.344;6.550;2024-03-22T10:44:13;11.80;;;3.45;;
75739;SDS011;64357;51.344;6.550;2024-03-22T10:46:42;11.32;;;3.45;;
75739;SDS011;64357;51.344;6.550;2024-03-22T10:49:09;11.18;;;3.80;;
75739;SDS011;64357;51.344;6.550;2024-03-22T10:51:46;11.07;;;3.75;;
75739;SDS011;64357;51.344;6.550;2024-03-22T10:54:18;8.57;;;2.95;;
75739;SDS011;64357;51.344;6.550;2024-03-22T10:56:45;8.18;;;3.03;;
75739;SDS011;64357;51.344;6.550;2024-03-22T10:59:19;7.32;;;2.45;;
75739;SDS011;64357;51.344;6.550;2024-03-22T11:01:46;5.32;;;2.13;;
75739;SDS011;64357;51.344;6.550;2024-03-22T11:04:11;7.88;;;2.50;;
75739;SDS011;64357;51.344;6.550;2024-03-22T11:06:37;8.45;;;3.30;;
75739;SDS011;64357;51.344;6.550;2024-03-22T11:09:02;11.13;;;3.22;;
75739;SDS011;64357;51.344;6.550;2024-03-22T11:11:29;8.30;;;3.33;;
75739;SDS011;64357;51.344;6.550;2024-03-22T11:14:02;9.00;;;3.60;;
75739;SDS011;64357;51.344;6.550;2024-03-22T11:16:32;10.90;;;3.42;;
75739;SDS011;64357;51.344;6.550;2024-03-22T11:18:57;7.70;;;3.65;;
75739;SDS011;64357;51.344;6.550;2024-03-22T11:21:24;10.07;;;3.30;;
75739;SDS011;64357;51.344;6.550;2024-03-22T11:23:52;7.57;;;3.08;;
75739;SDS011;64357;51.344;6.550;2024-03-22T11:26:19;7.32;;;2.97;;
75739;SDS011;64357;51.344;6.550;2024-03-22T11:28:47;5.75;;;2.67;;
75739;SDS011;64357;51.344;6.550;2024-03-22T11:31:12;8.73;;;3.70;;
75739;SDS011;64357;51.344;6.550;2024-03-22T11:33:37;6.97;;;2.55;;
75739;SDS011;64357;51.344;6.550;2024-03-22T11:36:04;6.80;;;2.63;;
75739;SDS011;64357;51.344;6.550;2024-03-22T11:38:31;12.00;;;3.17;;
75739;SDS011;64357;51.344;6.550;2024-03-22T11:40:57;9.48;;;2.40;;
75739;SDS011;64357;51.344;6.550;2024-03-22T11:43:25;10.43;;;3.38;;
75739;SDS011;64357;51.344;6.550;2024-03-22T11:45:53;9.02;;;3.97;;
75739;SDS011;64357;51.344;6.550;2024-03-22T11:48:19;9.48;;;3.63;;
75739;SDS011;64357;51.344;6.550;2024-03-22T11:50:46;11.40;;;3.90;;
75739;SDS011;64357;51.344;6.550;2024-03-22T11:53:15;12.80;;;3.85;;
75739;SDS011;64357;51.344;6.550;2024-03-22T11:55:42;10.73;;;4.53;;
75739;SDS011;64357;51.344;6.550;2024-03-22T11:58:09;6.30;;;2.67;;
75739;SDS011;64357;51.344;6.550;2024-03-22T12:00:35;8.30;;;3.28;;
75739;SDS011;64357;51.344;6.550;2024-03-22T12:03:02;8.93;;;4.40;;
75739;SDS011;64357;51.344;6.550;2024-03-22T12:05:29;9.85;;;4.88;;
75739;SDS011;64357;51.344;6.550;2024-03-22T12:07:55;10.23;;;4.47;;
75739;SDS011;64357;51.344;6.550;2024-03-22T12:10:21;9.35;;;3.22;;
75739;SDS011;64357;51.344;6.550;2024-03-22T12:12:46;7.33;;;3.23;;
75739;SDS011;64357;51.344;6.550;2024-03-22T12:15:11;10.10;;;3.72;;
75739;SDS011;64357;51.344;6.550;2024-03-22T12:17:37;9.50;;;4.13;;
75739;SDS011;64357;51.344;6.550;2024-03-22T12:20:04;10.15;;;4.80;;
75739;SDS011;64357;51.344;6.550;2024-03-22T12:22:33;10.20;;;3.75;;
75739;SDS011;64357;51.344;6.550;2024-03-22T12:24:59;10.55;;;4.20;;
75739;SDS011;64357;51.344;6.550;2024-03-22T12:27:29;9.60;;;5.13;;
75739;SDS011;64357;51.344;6.550;2024-03-22T12:29:57;11.00;;;4.20;;
75739;SDS011;64357;51.344;6.550;2024-03-22T12:32:22;10.30;;;4.37;;
75739;SDS011;64357;51.344;6.550;2024-03-22T12:34:47;9.20;;;4.35;;
75739;SDS011;64357;51.344;6.550;2024-03-22T12:37:13;9.33;;;3.67;;
75739;SDS011;64357;51.344;6.550;2024-03-22T12:39:39;12.95;;;4.10;;
75739;SDS011;64357;51.344;6.550;2024-03-22T12:42:04;12.05;;;4.78;;
75739;SDS011;64357;51.344;6.550;2024-03-22T12:44:30;9.35;;;3.50;;
75739;SDS011;64357;51.344;6.550;2024-03-22T12:46:56;9.20;;;3.85;;
75739;SDS011;64357;51.344;6.550;2024-03-22T12:49:22;13.93;;;3.95;;
75739;SDS011;64357;51.344;6.550;2024-03-22T12:51:50;9.30;;;3.72;;
75739;SDS011;64357;51.344;6.550;2024-03-22T12:54:15;11.38;;;4.07;;
75739;SDS011;64357;51.344;6.550;2024-03-22T12:56:43;10.70;;;4.13;;
75739;SDS011;64357;51.344;6.550;2024-03-22T12:59:09;9.45;;;3.78;;
75739;SDS011;64357;51.344;6.550;2024-03-22T13:01:34;9.88;;;4.88;;
75739;SDS011;64357;51.344;6.550;2024-03-22T13:04:01;9.25;;;3.20;;
75739;SDS011;64357;51.344;6.550;2024-03-22T13:06:27;9.07;;;3.63;;
75739;SDS011;64357;51.344;6.550;2024-03-22T13:08:54;11.25;;;4.53;;
75739;SDS011;64357;51.344;6.550;2024-03-22T13:11:20;7.57;;;3.67;;
75739;SDS011;64357;51.344;6.550;2024-03-22T13:13:45;10.87;;;4.07;;
75739;SDS011;64357;51.344;6.550;2024-03-22T13:16:11;11.48;;;4.05;;
75739;SDS011;64357;51.344;6.550;2024-03-22T13:18:39;8.45;;;3.60;;
75739;SDS011;64357;51.344;6.550;2024-03-22T13:21:05;8.75;;;4.10;;
75739;SDS011;64357;51.344;6.550;2024-03-22T13:23:33;8.95;;;4.22;;
75739;SDS011;64357;51.344;6.550;2024-03-22T13:26:02;6.72;;;3.78;;
75739;SDS011;64357;51.344;6.550;2024-03-22T13:28:31;10.82;;;4.47;;
75739;SDS011;64357;51.344;6.550;2024-03-22T13:31:03;11.30;;;3.45;;
75739;SDS011;64357;51.344;6.550;2024-03-22T13:33:31;10.30;;;5.78;;
75739;SDS011;64357;51.344;6.550;2024-03-22T13:35:58;12.13;;;4.28;;
75739;SDS011;64357;51.344;6.550;2024-03-22T13:38:24;9.70;;;4.47;;
75739;SDS011;64357;51.344;6.550;2024-03-22T13:40:55;12.40;;;5.10;;
75739;SDS011;64357;51.344;6.550;2024-03-22T13:43:23;9.73;;;3.95;;
75739;SDS011;64357;51.344;6.550;2024-03-22T13:45:51;9.82;;;4.20;;
75739;SDS011;64357;51.344;6.550;2024-03-22T13:48:19;7.68;;;3.72;;
75739;SDS011;64357;51.344;6.550;2024-03-22T13:50:48;8.75;;;4.10;;
75739;SDS011;64357;51.344;6.550;2024-03-22T13:53:14;11.82;;;4.07;;
75739;SDS011;64357;51.344;6.550;2024-03-22T13:55:40;8.38;;;4.13;;
75739;SDS011;64357;51.344;6.550;2024-03-22T13:58:08;10.07;;;3.67;;
75739;SDS011;64357;51.344;6.550;2024-03-22T14:00:34;9.97;;;4.47;;
75739;SDS011;64357;51.344;6.550;2024-03-22T14:03:00;11.95;;;5.22;;
75739;SDS011;64357;51.344;6.550;2024-03-22T14:05:26;14.43;;;4.53;;
75739;SDS011;64357;51.344;6.550;2024-03-22T14:07:51;10.90;;;4.93;;
75739;SDS011;64357;51.344;6.550;2024-03-22T14:10:17;13.67;;;5.60;;
75739;SDS011;64357;51.344;6.550;2024-03-22T14:12:45;14.73;;;5.78;;
75739;SDS011;64357;51.344;6.550;2024-03-22T14:15:13;13.52;;;5.90;;
75739;SDS011;64357;51.344;6.550;2024-03-22T14:17:41;13.55;;;5.22;;
75739;SDS011;64357;51.344;6.550;2024-03-22T14:20:07;8.85;;;3.83;;
75739;SDS011;64357;51.344;6.550;2024-03-22T14:22:39;15.43;;;5.53;;
75739;SDS011;64357;51.344;6.550;2024-03-22T14:25:06;11.00;;;5.30;;
75739;SDS011;64357;51.344;6.550;2024-03-22T14:27:35;11.13;;;4.72;;
75739;SDS011;64357;51.344;6.550;2024-03-22T14:30:04;11.00;;;4.28;;
75739;SDS011;64357;51.344;6.550;2024-03-22T14:32:34;11.60;;;4.63;;
75739;SDS011;64357;51.344;6.550;2024-03-22T14:34:59;13.90;;;6.43;;